Time;durP1;ratioP1;P1;durP2;ratioP2;P2;SDS_P1;SDS_P2;PMS_P1;PMS_P2;Temp;Humidity;BMP_temperature;BMP_pressure;BME280_temperature;BME280_humidity;BME280_pressure;Samples;Min_cycle;Max_cycle;Signal;HPM_P1;HPM_P2
2022/12/15 00:39:17;;;;;;;11.50;10.40;;;13.70;41.40;14.70;99824.00;;;;5074037;28;20212;-43
2022/12/15 00:41:43;;;;;;;11.37;10.20;;;13.60;41.30;14.70;99817.00;;;;5068126;28;20548;-42
2022/12/15 00:44:09;;;;;;;11.60;10.50;;;13.60;41.40;14.60;99822.00;;;;5068194;28;20197;-42
2022/12/15 01:22:30;;;;;;;10.87;9.87;;;13.20;42.00;14.30;99855.00;;;;5069323;28;20658;-41
2022/12/15 01:24:56;;;;;;;11.50;10.37;;;13.20;41.90;14.20;99857.00;;;;5071519;28;20205;-43
2022/12/15 01:27:21;;;;;;;11.10;10.00;;;13.10;42.00;14.20;99852.00;;;;5070997;28;20166;-43
2022/12/15 01:29:47;;;;;;;11.27;10.17;;;13.10;42.00;14.20;99865.00;;;;5070981;28;20189;-41
2022/12/15 01:32:13;;;;;;;10.87;9.77;;;13.10;42.10;14.20;99854.00;;;;5069553;28;20173;-41
2022/12/15 01:34:39;;;;;;;10.60;9.50;;;13.10;42.30;14.20;99859.00;;;;5070314;28;20606;-42
2022/12/15 01:37:04;;;;;;;11.03;9.93;;;13.10;42.20;14.20;99865.00;;;;5070709;28;20659;-42
2022/12/15 01:40:43;;;;;;;11.47;10.37;;;13.10;42.30;14.10;99859.00;;;;5070494;28;20206;-43
2022/12/15 01:42:17;;;;;;;10.27;9.27;;;13.00;42.20;14.10;99863.00;;;;5069784;28;20174;-42
2022/12/15 01:44:44;;;;;;;10.20;9.10;;;13.00;42.30;14.10;99880.00;;;;5069190;28;20230;-42
2022/12/15 01:47:11;;;;;;;10.50;9.50;;;13.00;42.30;14.10;99898.00;;;;5068239;28;20173;-43
2022/12/15 01:49:36;;;;;;;10.03;9.13;;;13.00;42.30;14.10;99893.00;;;;5068515;28;20186;-41
2022/12/15 01:52:04;;;;;;;10.40;9.40;;;13.00;42.30;14.10;99887.00;;;;5067883;28;20731;-43
2022/12/15 01:54:50;;;;;;;10.67;9.67;;;12.90;42.20;14.00;99894.00;;;;5069117;28;20174;-42
2022/12/15 01:57:24;;;;;;;10.47;9.47;;;13.00;42.30;14.00;99900.00;;;;5069469;28;20394;-42
2022/12/15 01:59:52;;;;;;;10.50;9.50;;;12.90;42.30;14.00;99903.00;;;;5069801;28;20232;-42
2022/12/15 02:02:20;;;;;;;11.10;9.90;;;12.90;42.40;14.00;99900.00;;;;5071407;28;20166;-42
2022/12/15 02:04:45;;;;;;;9.90;8.90;;;12.90;42.50;14.00;99909.00;;;;5070891;28;20171;-42
2022/12/15 02:07:13;;;;;;;10.70;9.63;;;12.90;42.50;13.90;99914.00;;;;5069644;28;20170;-41
2022/12/15 02:09:39;;;;;;;10.27;9.27;;;12.90;42.50;13.90;99903.00;;;;5070805;28;20221;-43
2022/12/15 02:12:38;;;;;;;10.50;9.50;;;12.80;42.50;13.90;99904.00;;;;5068601;28;20360;-43
2022/12/15 02:15:19;;;;;;;10.70;9.70;;;12.80;42.50;13.90;99892.00;;;;5067510;28;20740;-42
2022/12/15 02:18:26;;;;;;;11.07;9.97;;;12.80;42.60;13.90;99896.00;;;;5052148;28;20196;-43
2022/12/15 02:21:09;;;;;;;10.97;9.87;;;12.80;42.60;13.80;99903.00;;;;5069901;28;20197;-41
2022/12/15 02:24:36;;;;;;;11.30;10.20;;;12.80;42.60;13.80;99899.00;;;;5068656;28;20165;-42
2022/12/15 02:27:46;;;;;;;10.50;9.50;;;12.80;42.60;13.80;99900.00;;;;5068898;28;20189;-41
2022/12/15 02:30:43;;;;;;;10.60;9.60;;;12.70;42.60;13.80;99906.00;;;;5069206;28;20197;-41
2022/12/15 02:33:24;;;;;;;10.77;9.70;;;12.70;42.80;13.70;99898.00;;;;5048406;28;20170;-43
2022/12/15 02:35:58;;;;;;;11.07;9.90;;;12.70;42.70;13.70;99902.00;;;;5048707;28;20166;-41
2022/12/15 02:38:28;;;;;;;10.70;9.70;;;12.70;42.80;13.70;99903.00;;;;5048827;28;20253;-42
2022/12/15 02:40:59;;;;;;;10.67;9.57;;;12.70;42.80;13.70;99899.00;;;;5049750;28;20202;-41
2022/12/15 02:43:25;;;;;;;11.70;10.50;;;12.70;42.80;13.70;99907.00;;;;5049731;28;20232;-42
2022/12/15 02:46:23;;;;;;;11.10;10.00;;;12.70;42.90;13.70;99908.00;;;;5048504;28;20273;-42
2022/12/15 02:49:11;;;;;;;10.80;9.77;;;12.60;42.80;13.70;99911.00;;;;5048468;28;20227;-42
2022/12/15 02:52:03;;;;;;;10.70;9.60;;;12.60;42.80;13.60;99912.00;;;;5048246;28;20162;-43
2022/12/15 02:54:59;;;;;;;10.90;9.70;;;12.60;43.00;13.60;99921.00;;;;5048675;28;20174;-42
2022/12/15 02:57:35;;;;;;;11.10;10.00;;;12.60;43.10;13.60;99916.00;;;;5053950;28;20171;-43
2022/12/15 03:00:04;;;;;;;11.10;9.87;;;12.50;43.10;13.60;99927.00;;;;5048590;28;20206;-41
2022/12/15 03:02:31;;;;;;;11.23;9.60;;;12.50;43.10;13.60;99931.00;;;;5047348;28;20187;-41
2022/12/15 03:04:57;;;;;;;10.40;9.40;;;12.50;43.10;13.60;99914.00;;;;5048360;28;20177;-42
2022/12/15 03:07:26;;;;;;;11.10;10.00;;;12.50;43.20;13.60;99922.00;;;;5048101;28;20175;-42
2022/12/15 03:09:56;;;;;;;11.67;10.47;;;12.50;43.20;13.50;99932.00;;;;5049108;28;20545;-42
2022/12/15 03:12:22;;;;;;;11.33;10.23;;;12.40;43.30;13.50;99931.00;;;;5052178;28;20621;-43
2022/12/15 03:14:47;;;;;;;11.33;9.97;;;12.40;43.30;13.50;99952.00;;;;5058084;28;20174;-41
2022/12/15 03:17:13;;;;;;;11.30;10.20;;;12.40;43.30;13.50;99962.00;;;;5059167;28;20178;-41
2022/12/15 03:19:39;;;;;;;11.10;10.00;;;12.40;43.30;13.50;99948.00;;;;5054600;28;20234;-41
2022/12/15 03:22:04;;;;;;;11.17;9.97;;;12.40;44.10;13.50;99941.00;;;;5053790;28;20223;-42
2022/12/15 03:24:30;;;;;;;11.03;9.73;;;12.40;43.50;13.50;99948.00;;;;5049101;28;20244;-42
2022/12/15 03:26:56;;;;;;;11.57;10.37;;;12.40;43.70;13.50;99939.00;;;;5048598;28;20194;-42
2022/12/15 03:29:22;;;;;;;10.77;9.67;;;12.40;43.70;13.40;99937.00;;;;5048946;28;20229;-42
2022/12/15 03:31:47;;;;;;;10.93;9.83;;;12.30;43.70;13.40;99948.00;;;;5048334;28;20820;-41
2022/12/15 03:34:13;;;;;;;11.23;10.03;;;12.30;43.80;13.40;99953.00;;;;5048757;28;20220;-42
2022/12/15 03:36:39;;;;;;;10.83;9.73;;;12.30;43.90;13.40;99956.00;;;;5048229;28;20174;-41
2022/12/15 03:39:05;;;;;;;10.87;9.70;;;12.30;43.90;13.40;99946.00;;;;5048523;28;20206;-42
2022/12/15 03:41:30;;;;;;;10.87;9.77;;;12.30;43.90;13.40;99952.00;;;;5048001;28;20256;-42
2022/12/15 03:43:56;;;;;;;11.47;10.20;;;12.30;43.90;13.40;99948.00;;;;5048509;28;20185;-43
2022/12/15 03:46:22;;;;;;;11.07;9.87;;;12.20;43.80;13.40;99952.00;;;;5048837;28;20219;-43
2022/12/15 03:48:48;;;;;;;11.23;10.10;;;12.30;43.90;13.30;99958.00;;;;5048440;28;20198;-43
2022/12/15 03:51:13;;;;;;;12.60;10.30;;;12.20;43.90;13.30;99942.00;;;;5048196;28;20189;-42
2022/12/15 03:53:39;;;;;;;11.63;10.17;;;12.20;43.80;13.30;99969.00;;;;5048635;28;20174;-42
2022/12/15 03:56:06;;;;;;;11.77;10.57;;;12.20;43.80;13.30;99963.00;;;;5048701;28;20178;-42
2022/12/15 03:58:31;;;;;;;11.87;10.50;;;12.20;43.90;13.30;99957.00;;;;5048087;28;20174;-42
2022/12/15 04:00:57;;;;;;;11.57;10.37;;;12.10;43.90;13.30;99962.00;;;;5051390;28;20197;-42
2022/12/15 04:03:23;;;;;;;12.13;10.87;;;12.10;43.80;13.20;99956.00;;;;5054060;28;20551;-42
2022/12/15 04:05:48;;;;;;;11.47;10.27;;;12.10;43.70;13.20;99964.00;;;;5048484;28;20686;-42
2022/12/15 04:08:14;;;;;;;12.13;10.83;;;12.10;43.80;13.20;99970.00;;;;5048471;28;20198;-41
2022/12/15 04:10:40;;;;;;;11.83;10.70;;;12.10;43.70;13.20;99968.00;;;;5046185;28;20352;-42
2022/12/15 04:13:08;;;;;;;12.20;10.90;;;12.10;43.80;13.20;99963.00;;;;5047582;28;20345;-41
2022/12/15 04:15:35;;;;;;;12.37;11.07;;;12.10;43.70;13.20;99978.00;;;;5046746;28;20182;-42
2022/12/15 04:18:02;;;;;;;12.67;11.37;;;12.00;43.70;13.10;99890.00;;;;5047793;28;20279;-42
2022/12/15 04:20:28;;;;;;;11.70;10.50;;;12.00;43.70;13.10;99972.00;;;;5047476;28;20213;-40
2022/12/15 04:22:54;;;;;;;11.20;10.10;;;12.10;43.80;13.20;99979.00;;;;5047282;28;20178;-41
2022/12/15 05:31:53;;;;;;;12.37;7.33;;;14.80;43.10;15.00;99990.00;;;;5008612;28;20596;-43
2022/12/15 05:34:24;;;;;;;8.47;7.30;;;14.80;43.80;15.00;99982.00;;;;5010440;28;20270;-43
2022/12/15 05:36:51;;;;;;;8.53;7.63;;;14.90;44.00;15.00;99964.00;;;;5008881;28;20171;-42
2022/12/15 05:39:17;;;;;;;10.33;7.87;;;14.80;43.70;15.10;100004.00;;;;5009088;28;20194;-42
2022/12/15 05:41:42;;;;;;;9.67;7.27;;;14.90;43.80;15.20;99994.00;;;;5011554;28;20171;-43
2022/12/15 05:44:08;;;;;;;7.73;6.93;;;14.90;43.70;15.20;99997.00;;;;5012197;28;20178;-43
2022/12/15 05:46:34;;;;;;;10.50;7.50;;;15.10;43.80;15.30;99997.00;;;;5012477;28;20171;-43
2022/12/15 05:49:06;;;;;;;8.43;7.20;;;15.10;43.80;15.30;100010.00;;;;5012339;28;20553;-43
2022/12/15 05:51:31;;;;;;;8.23;6.83;;;15.10;44.00;15.40;100013.00;;;;5011134;28;20188;-44
2022/12/15 05:53:57;;;;;;;7.47;6.77;;;15.10;44.00;15.40;100010.00;;;;5021570;28;20614;-42
2022/12/15 05:56:24;;;;;;;8.60;6.90;;;15.20;44.20;15.50;100004.00;;;;5021894;28;20522;-42
2022/12/15 05:58:50;;;;;;;7.43;6.73;;;15.20;44.30;15.50;100000.00;;;;5017654;28;20285;-43
2022/12/15 06:01:16;;;;;;;8.37;6.80;;;15.20;44.40;15.50;100011.00;;;;5011364;28;20228;-42
2022/12/15 06:03:42;;;;;;;7.27;6.33;;;15.20;44.60;15.50;100014.00;;;;5011633;28;20822;-42
2022/12/15 06:06:09;;;;;;;7.77;6.97;;;15.20;44.60;15.60;100020.00;;;;5011377;28;20183;-43
2022/12/15 06:08:36;;;;;;;8.50;6.63;;;15.20;45.20;15.60;100028.00;;;;5010412;28;20163;-42
2022/12/15 06:11:02;;;;;;;8.93;6.40;;;15.10;45.20;15.60;100029.00;;;;5009658;28;20309;-43
2022/12/15 06:13:33;;;;;;;7.00;6.13;;;15.10;45.30;15.60;100028.00;;;;5009149;28;20254;-43
2022/12/15 06:16:04;;;;;;;8.47;6.70;;;15.10;45.30;15.60;100029.00;;;;5009874;28;20186;-42
2022/12/15 06:18:35;;;;;;;7.17;6.20;;;15.10;45.40;15.60;100021.00;;;;5010506;28;20850;-43
2022/12/15 06:21:11;;;;;;;7.67;6.67;;;15.20;45.50;15.60;100018.00;;;;5010462;28;20196;-43
2022/12/15 06:23:36;;;;;;;7.47;6.67;;;15.20;45.40;15.70;100031.00;;;;5008562;28;20249;-42
2022/12/15 06:26:28;;;;;;;9.83;6.37;;;15.20;45.40;15.70;100024.00;;;;5011621;28;20203;-42
2022/12/15 06:28:56;;;;;;;7.23;6.10;;;15.20;45.50;15.70;100036.00;;;;5011360;28;20270;-43
2022/12/15 06:31:24;;;;;;;6.77;6.03;;;15.20;45.60;15.70;100029.00;;;;5010548;28;20172;-46
2022/12/15 06:33:53;;;;;;;6.57;5.90;;;15.30;45.70;15.70;100027.00;;;;5010527;28;20203;-42
2022/12/15 06:36:19;;;;;;;7.47;6.27;;;15.30;45.60;15.70;100028.00;;;;5011308;28;20176;-42
2022/12/15 06:38:45;;;;;;;7.07;6.37;;;15.30;45.60;15.70;100030.00;;;;5011194;28;20811;-42
2022/12/15 06:41:15;;;;;;;6.63;5.87;;;15.30;45.70;15.70;100027.00;;;;5011984;28;20210;-42
2022/12/15 06:43:41;;;;;;;7.93;5.93;;;15.20;45.70;15.70;100022.00;;;;5011541;28;20168;-42
2022/12/15 06:46:07;;;;;;;6.70;6.00;;;15.30;45.80;15.80;100030.00;;;;5011968;28;20207;-43
2022/12/15 06:48:33;;;;;;;6.60;6.00;;;15.30;45.80;15.80;100043.00;;;;5012058;28;20171;-41
2022/12/15 06:51:04;;;;;;;6.60;6.00;;;15.30;45.70;15.80;100043.00;;;;5010872;28;20839;-43
2022/12/15 06:53:30;;;;;;;6.97;5.90;;;15.30;45.80;15.80;100035.00;;;;5010233;28;20172;-42
2022/12/15 06:56:00;;;;;;;6.30;5.70;;;15.30;45.80;15.80;100031.00;;;;5010866;28;20184;-43
2022/12/15 06:58:26;;;;;;;6.90;6.20;;;15.30;45.90;15.80;100037.00;;;;4993148;28;20629;-43
2022/12/15 07:00:52;;;;;;;6.87;6.17;;;15.20;45.90;15.80;100038.00;;;;5010391;28;20203;-42
2022/12/15 07:03:18;;;;;;;6.50;5.90;;;15.20;46.20;15.80;100034.00;;;;5010065;28;20168;-43
2022/12/15 07:05:44;;;;;;;6.80;6.10;;;15.20;46.20;15.80;100041.00;;;;5010833;28;20167;-42
2022/12/15 07:08:11;;;;;;;6.63;6.00;;;15.20;46.20;15.80;100048.00;;;;5010526;28;20736;-42
2022/12/15 07:10:39;;;;;;;6.17;5.60;;;15.30;46.10;15.80;100045.00;;;;5010049;28;20238;-43
2022/12/15 07:13:05;;;;;;;6.40;5.80;;;15.30;46.10;15.80;100047.00;;;;5009825;28;20545;-42
2022/12/15 07:15:31;;;;;;;6.53;5.93;;;15.30;46.10;15.80;100050.00;;;;5010630;28;20202;-44
2022/12/15 07:17:56;;;;;;;6.50;5.90;;;15.30;46.30;15.80;100055.00;;;;5010405;28;20656;-42
2022/12/15 07:20:23;;;;;;;6.80;6.10;;;15.30;46.30;15.80;100061.00;;;;5009956;28;20198;-42
2022/12/15 07:22:50;;;;;;;6.40;5.80;;;15.30;46.10;15.80;100061.00;;;;5010536;28;20221;-42
2022/12/15 07:25:17;;;;;;;7.10;6.40;;;15.40;46.10;15.80;100068.00;;;;5021136;28;20175;-42
2022/12/15 07:27:43;;;;;;;6.40;5.80;;;15.40;46.20;15.80;100074.00;;;;5021305;28;20180;-42
2022/12/15 07:30:10;;;;;;;7.00;6.20;;;15.30;46.30;15.80;100068.00;;;;5019265;28;20258;-43
2022/12/15 07:32:36;;;;;;;6.50;5.90;;;15.30;46.30;15.80;100066.00;;;;5009586;28;20175;-43
2022/12/15 07:35:04;;;;;;;6.03;5.47;;;15.40;46.20;15.90;100058.00;;;;5012986;28;20182;-43
2022/12/15 07:37:30;;;;;;;6.63;5.93;;;15.40;46.20;15.90;100057.00;;;;5018862;28;20616;-43
2022/12/15 07:39:56;;;;;;;5.97;5.37;;;15.40;46.10;15.90;100056.00;;;;5018371;28;20203;-42
2022/12/15 07:42:21;;;;;;;6.47;5.80;;;15.30;46.30;15.90;100058.00;;;;5014986;28;20519;-44
2022/12/15 07:44:47;;;;;;;7.40;6.10;;;15.40;46.40;15.90;100059.00;;;;5013622;28;20616;-43
2022/12/15 07:47:13;;;;;;;6.20;5.60;;;15.40;46.40;15.90;100074.00;;;;5010688;28;20172;-42
2022/12/15 07:49:39;;;;;;;6.97;6.27;;;15.30;46.40;15.90;100081.00;;;;5009670;28;20325;-42
2022/12/15 07:52:04;;;;;;;6.40;5.80;;;15.20;46.30;15.90;100081.00;;;;5009327;28;20167;-42
2022/12/15 07:54:30;;;;;;;6.63;6.00;;;15.20;46.30;15.90;100080.00;;;;5009507;28;20172;-44
2022/12/15 07:56:56;;;;;;;6.43;5.83;;;15.30;46.30;15.90;100084.00;;;;5009384;28;20664;-43
2022/12/15 07:59:22;;;;;;;6.70;6.07;;;15.30;46.40;15.90;100078.00;;;;5009638;28;20191;-43
2022/12/15 08:01:48;;;;;;;6.23;5.63;;;15.30;46.40;15.90;100077.00;;;;5008071;28;20183;-43
2022/12/15 08:04:14;;;;;;;6.30;5.70;;;15.30;46.30;15.90;100069.00;;;;5009124;28;20653;-42
2022/12/15 08:06:40;;;;;;;6.37;5.70;;;15.30;46.30;15.90;100062.00;;;;5008479;28;20174;-42
2022/12/15 08:09:06;;;;;;;6.80;6.20;;;15.40;46.50;15.90;99977.00;;;;5006821;28;20267;-41
2022/12/15 08:11:35;;;;;;;6.97;6.30;;;15.30;46.40;15.90;100052.00;;;;5006613;28;20186;-40
2022/12/15 08:14:01;;;;;;;6.07;5.47;;;15.40;46.40;15.90;100066.00;;;;5009540;28;20180;-43
2022/12/15 08:16:27;;;;;;;6.73;5.90;;;15.30;46.40;15.90;100076.00;;;;5009811;28;20171;-42
2022/12/15 08:18:52;;;;;;;5.93;5.43;;;15.30;46.40;15.90;100080.00;;;;5008719;28;20215;-42
2022/12/15 08:21:19;;;;;;;6.50;5.90;;;15.40;46.50;15.90;100084.00;;;;5008920;28;20215;-43
2022/12/15 08:23:45;;;;;;;6.30;5.70;;;15.40;47.10;15.90;100095.00;;;;5008780;28;20235;-43
2022/12/15 08:26:13;;;;;;;6.50;5.90;;;15.40;46.50;15.90;100100.00;;;;5008995;28;20259;-43
2022/12/15 08:28:39;;;;;;;6.60;6.00;;;15.40;46.50;15.90;100101.00;;;;5009492;28;20176;-42
2022/12/15 08:31:13;;;;;;;6.47;5.87;;;15.40;46.50;15.90;100118.00;;;;5023411;28;20191;-42
2022/12/15 08:33:39;;;;;;;6.40;5.80;;;15.40;46.40;15.90;100124.00;;;;5012060;28;20179;-41
2022/12/15 08:36:07;;;;;;;6.07;5.57;;;15.40;46.50;16.00;100117.00;;;;5008905;28;20190;-42
2022/12/15 08:38:33;;;;;;;7.40;6.00;;;15.40;46.50;15.90;100129.00;;;;5012822;28;20179;-43
2022/12/15 08:41:07;;;;;;;8.33;5.83;;;15.40;47.00;16.00;100115.00;;;;5012510;28;20199;-42
2022/12/15 08:43:33;;;;;;;6.23;5.73;;;15.40;47.10;15.90;100116.00;;;;5011439;28;20214;-43
2022/12/15 08:45:59;;;;;;;6.70;6.10;;;15.40;47.30;15.90;100121.00;;;;5009083;28;20644;-42
2022/12/15 08:48:25;;;;;;;6.40;5.70;;;15.40;47.40;15.90;100124.00;;;;5009528;28;20197;-43
2022/12/15 08:50:50;;;;;;;6.43;5.83;;;15.30;47.30;15.90;100120.00;;;;5008681;28;20669;-43
2022/12/15 08:53:16;;;;;;;7.53;6.27;;;15.30;47.40;15.90;100136.00;;;;5008038;28;20229;-43
2022/12/15 08:55:42;;;;;;;6.80;6.03;;;15.30;47.60;15.90;100135.00;;;;5006625;28;20179;-42
2022/12/15 08:58:08;;;;;;;6.80;6.20;;;15.30;47.60;15.90;100131.00;;;;5022837;28;20171;-43
2022/12/15 09:00:33;;;;;;;6.77;6.17;;;15.30;47.60;15.90;100134.00;;;;5028876;28;20651;-43
2022/12/15 09:03:00;;;;;;;5.77;5.27;;;15.30;47.50;15.90;100129.00;;;;5028364;28;20183;-44
2022/12/15 09:05:25;;;;;;;6.50;5.90;;;15.30;47.50;15.90;100129.00;;;;5028621;28;20241;-43
2022/12/15 09:07:58;;;;;;;6.43;5.53;;;15.30;47.40;16.00;100141.00;;;;5028561;28;20175;-42
2022/12/15 09:10:23;;;;;;;6.20;5.60;;;15.40;47.50;15.90;100136.00;;;;5027968;28;20286;-43
2022/12/15 09:12:49;;;;;;;6.43;5.83;;;15.30;47.40;15.90;100143.00;;;;5028714;28;20316;-43
2022/12/15 09:15:16;;;;;;;6.20;5.60;;;15.40;47.30;16.00;100142.00;;;;5032496;28;20175;-43
2022/12/15 09:17:42;;;;;;;6.43;5.83;;;15.40;47.30;16.00;100149.00;;;;5032074;28;20198;-42
2022/12/15 09:20:08;;;;;;;6.50;6.00;;;15.40;47.50;15.90;100151.00;;;;5016259;28;20215;-43
2022/12/15 09:22:35;;;;;;;6.67;5.80;;;15.40;47.50;16.00;100153.00;;;;5017333;28;20219;-42
2022/12/15 09:25:04;;;;;;;6.67;6.03;;;15.30;47.70;16.00;100156.00;;;;5023009;28;20171;-43
2022/12/15 09:27:30;;;;;;;6.53;5.93;;;15.40;48.20;16.00;100147.00;;;;5022278;28;20188;-42
2022/12/15 09:29:56;;;;;;;6.67;6.00;;;15.40;48.30;16.00;100148.00;;;;5019906;28;20797;-45
2022/12/15 09:32:22;;;;;;;6.50;5.90;;;15.40;48.40;16.00;100162.00;;;;5010994;28;20304;-42
2022/12/15 09:34:50;;;;;;;7.37;6.67;;;15.40;48.10;16.00;100164.00;;;;5011742;28;20218;-42
2022/12/15 09:37:17;;;;;;;9.57;6.80;;;15.30;47.60;16.00;100169.00;;;;5030957;28;20229;-42
2022/12/15 09:39:43;;;;;;;7.37;6.77;;;15.30;47.60;16.00;100170.00;;;;5017334;28;20751;-44
2022/12/15 09:42:26;;;;;;;10.23;7.57;;;15.40;47.70;16.00;100166.00;;;;5030486;28;20267;-42
2022/12/15 09:44:58;;;;;;;9.60;7.03;;;15.30;48.10;15.90;100189.00;;;;5031328;28;20156;-44
2022/12/15 09:47:51;;;;;;;14.20;7.87;;;15.30;48.00;15.90;100183.00;;;;5032359;28;20626;-44
2022/12/15 09:50:16;;;;;;;9.70;7.73;;;15.20;48.00;15.90;100179.00;;;;5031871;28;20226;-43
2022/12/15 09:52:52;;;;;;;11.17;7.47;;;15.30;47.90;15.90;100183.00;;;;5031645;28;20198;-43
2022/12/15 09:55:34;;;;;;;12.63;7.77;;;15.30;48.20;16.00;100171.00;;;;5015210;28;20564;-44
2022/12/15 09:58:48;;;;;;;10.93;7.10;;;15.50;48.80;16.00;100175.00;;;;5033048;28;20199;-43
2022/12/15 10:01:50;;;;;;;14.53;7.50;;;15.50;49.70;16.00;100178.00;;;;5031824;28;20198;-42
2022/12/15 10:04:41;;;;;;;14.17;7.20;;;15.50;49.80;16.00;100181.00;;;;5030846;28;20294;-44
2022/12/15 10:07:24;;;;;;;8.97;6.37;;;15.40;50.10;16.00;100183.00;;;;5032537;28;20186;-44
2022/12/15 10:09:50;;;;;;;13.00;7.23;;;15.60;50.00;16.00;100188.00;;;;5016174;28;20437;-42
2022/12/15 10:12:22;;;;;;;13.77;7.13;;;15.50;49.90;16.10;100198.00;;;;5030868;28;20179;-43
2022/12/15 10:15:19;;;;;;;9.27;6.80;;;15.60;50.00;16.10;100183.00;;;;5030723;28;20635;-44
2022/12/15 10:17:47;;;;;;;8.53;6.53;;;15.50;50.00;16.10;100186.00;;;;5030885;28;20828;-44
2022/12/15 10:20:28;;;;;;;9.53;7.00;;;15.50;50.10;16.10;100175.00;;;;5030446;28;20253;-43
2022/12/15 10:22:56;;;;;;;9.17;6.57;;;15.50;50.70;16.10;100185.00;;;;5018364;28;20195;-42
2022/12/15 10:25:28;;;;;;;10.77;6.77;;;15.50;50.90;16.10;100190.00;;;;5010978;28;20207;-43
2022/12/15 10:28:15;;;;;;;10.50;6.73;;;15.50;50.80;16.10;100186.00;;;;5012141;28;20172;-44
2022/12/15 10:31:07;;;;;;;7.63;6.50;;;15.50;51.00;16.10;100166.00;;;;5012188;28;20191;-45
2022/12/15 10:33:41;;;;;;;7.93;6.17;;;15.50;50.80;16.10;100185.00;;;;5011792;28;20645;-42
2022/12/15 10:36:14;;;;;;;7.40;5.80;;;15.50;50.70;16.10;100192.00;;;;5030103;28;20182;-40
2022/12/15 10:38:46;;;;;;;9.90;6.67;;;15.50;50.50;16.10;100195.00;;;;5029368;28;20175;-41
2022/12/15 10:41:18;;;;;;;8.07;5.80;;;15.50;50.40;16.10;100180.00;;;;5030145;28;20195;-42
2022/12/15 10:43:49;;;;;;;6.30;5.70;;;15.50;50.40;16.10;100197.00;;;;5028501;28;20171;-41
2022/12/15 10:46:23;;;;;;;8.20;6.13;;;15.40;50.20;16.10;100190.00;;;;5030477;28;20179;-41
2022/12/15 10:48:57;;;;;;;6.53;5.90;;;15.40;50.10;16.10;100187.00;;;;5028650;28;20162;-41
2022/12/15 10:51:44;;;;;;;6.27;5.67;;;15.40;50.10;16.10;100209.00;;;;5027712;28;20678;-42
2022/12/15 10:54:14;;;;;;;9.13;5.80;;;15.40;50.10;16.10;100190.00;;;;5024709;28;20195;-42
2022/12/15 10:56:52;;;;;;;7.10;5.90;;;15.40;50.00;16.10;100193.00;;;;5019537;28;20183;-41
2022/12/15 10:59:30;;;;;;;7.10;5.90;;;15.40;49.90;16.10;100186.00;;;;5029558;28;20195;-41
2022/12/15 11:02:24;;;;;;;6.77;5.80;;;15.40;49.80;16.10;100176.00;;;;5030489;28;20329;-41
2022/12/15 11:05:08;;;;;;;7.30;5.53;;;15.40;49.70;16.10;100175.00;;;;5027856;28;20559;-42
2022/12/15 11:07:42;;;;;;;8.77;5.57;;;15.40;49.70;16.10;100174.00;;;;5030135;28;20194;-42
2022/12/15 11:10:26;;;;;;;6.50;5.67;;;15.40;49.50;16.10;100165.00;;;;5031193;28;20195;-42
2022/12/15 11:13:14;;;;;;;6.40;5.80;;;15.50;49.50;16.10;100171.00;;;;5046326;28;20186;-41
2022/12/15 11:15:51;;;;;;;8.30;5.47;;;15.50;49.50;16.10;100173.00;;;;5032913;28;20171;-43
2022/12/15 11:18:37;;;;;;;6.00;5.50;;;15.50;49.40;16.10;100173.00;;;;5029854;28;20667;-42
2022/12/15 11:21:30;;;;;;;5.67;5.17;;;15.50;49.40;16.10;100172.00;;;;5029851;28;20183;-42
2022/12/15 11:24:24;;;;;;;5.83;5.23;;;15.50;49.50;16.10;100179.00;;;;5028390;28;20183;-42
2022/12/15 11:27:18;;;;;;;5.80;5.23;;;15.40;49.40;16.10;100165.00;;;;5030242;28;20171;-41
2022/12/15 11:30:00;;;;;;;5.87;5.23;;;15.40;49.40;16.10;100161.00;;;;5027367;28;20230;-41
2022/12/15 11:32:30;;;;;;;6.53;5.70;;;15.40;49.40;16.10;100161.00;;;;5028127;28;21000;-41
2022/12/15 11:34:56;;;;;;;5.90;5.40;;;15.40;49.40;16.10;100145.00;;;;5029564;28;20245;-40
2022/12/15 11:37:44;;;;;;;5.60;5.10;;;15.40;49.40;16.10;100164.00;;;;5027643;28;20207;-42
2022/12/15 11:40:38;;;;;;;6.00;5.50;;;15.40;49.30;16.10;100167.00;;;;5028213;28;20199;-42
2022/12/15 11:43:37;;;;;;;6.07;5.50;;;15.40;49.30;16.10;100162.00;;;;5025725;28;20158;-41
2022/12/15 11:46:26;;;;;;;5.57;5.07;;;15.50;49.20;16.10;100158.00;;;;5009889;28;20180;-42
2022/12/15 11:49:25;;;;;;;5.37;4.90;;;15.50;49.10;16.10;100144.00;;;;4993953;28;20166;-42
2022/12/15 11:51:58;;;;;;;5.60;5.07;;;15.50;49.10;16.10;100145.00;;;;4994853;28;20588;-42
2022/12/15 11:55:34;;;;;;;5.57;5.10;;;15.50;49.10;16.10;100147.00;;;;5003735;28;20176;-41
2022/12/15 11:58:44;;;;;;;5.40;4.90;;;15.40;49.10;16.10;100148.00;;;;5002900;28;20223;-41
2022/12/15 12:01:47;;;;;;;7.17;5.10;;;15.50;49.60;16.10;100157.00;;;;5015881;28;20286;-41
2022/12/15 12:04:25;;;;;;;5.40;4.90;;;15.50;49.40;16.10;100158.00;;;;5015242;28;20238;-41
2022/12/15 12:07:12;;;;;;;5.77;5.07;;;15.60;49.30;16.10;100158.00;;;;5016588;28;20179;-41
2022/12/15 12:10:04;;;;;;;6.17;5.50;;;15.60;49.40;16.10;100156.00;;;;5001818;28;20192;-42
2022/12/15 12:12:37;;;;;;;5.60;5.10;;;15.50;49.90;16.20;100159.00;;;;4988194;28;20164;-42
2022/12/15 12:15:12;;;;;;;5.73;5.23;;;15.50;49.80;16.20;100145.00;;;;4990024;28;20156;-41
2022/12/15 12:17:50;;;;;;;5.77;5.27;;;15.50;49.90;16.20;100154.00;;;;4989647;28;20188;-42
2022/12/15 12:20:46;;;;;;;5.30;4.80;;;15.50;50.10;16.20;100143.00;;;;4989595;28;20314;-41
2022/12/15 12:23:23;;;;;;;5.33;4.77;;;15.50;50.10;16.20;100129.00;;;;4987224;28;20161;-43
2022/12/15 12:26:20;;;;;;;5.37;4.87;;;15.60;50.20;16.20;100135.00;;;;4994966;28;20175;-42
2022/12/15 12:29:13;;;;;;;5.47;4.97;;;15.60;50.30;16.20;100136.00;;;;4974840;28;20156;-42
2022/12/15 12:31:56;;;;;;;5.73;4.97;;;15.50;50.30;16.20;100136.00;;;;4987169;28;20179;-41
2022/12/15 12:34:57;;;;;;;7.77;5.20;;;15.60;50.50;16.20;100124.00;;;;4988603;28;20176;-41
2022/12/15 12:37:50;;;;;;;5.60;5.10;;;15.50;50.60;16.20;100112.00;;;;4981743;28;20199;-40
2022/12/15 12:40:44;;;;;;;6.00;5.20;;;15.50;50.80;16.20;100118.00;;;;4989630;28;20571;-42
2022/12/15 12:43:36;;;;;;;5.10;4.70;;;15.40;50.80;16.20;100102.00;;;;4988035;28;20189;-41
2022/12/15 12:46:24;;;;;;;6.83;4.90;;;15.50;50.80;16.20;100108.00;;;;4988356;28;20580;-40
2022/12/15 12:49:14;;;;;;;6.03;4.80;;;15.40;50.70;16.10;100100.00;;;;4992969;28;20152;-41
2022/12/15 12:51:40;;;;;;;7.17;4.43;;;15.40;50.80;16.20;100111.00;;;;4993032;28;20183;-40
2022/12/15 12:54:35;;;;;;;10.93;4.70;;;15.40;51.20;16.20;100097.00;;;;4991042;28;20256;-41
2022/12/15 12:57:10;;;;;;;10.40;4.77;;;15.50;50.90;16.20;100096.00;;;;4992505;28;20172;-44
2022/12/15 12:59:38;;;;;;;5.47;4.63;;;15.50;50.70;16.20;100083.00;;;;4992903;28;20680;-40
2022/12/15 13:02:24;;;;;;;4.90;4.20;;;15.50;50.50;16.20;100089.00;;;;4991981;28;20172;-41
2022/12/15 13:05:00;;;;;;;6.50;4.80;;;15.40;50.50;16.20;100088.00;;;;4992599;28;20247;-41
2022/12/15 13:07:37;;;;;;;5.37;4.47;;;15.40;50.50;16.20;100081.00;;;;4992509;28;20164;-41
2022/12/15 13:10:20;;;;;;;7.87;4.70;;;15.40;50.50;16.20;100078.00;;;;4990074;28;20540;-43
2022/12/15 13:12:59;;;;;;;7.40;5.10;;;15.40;50.80;16.20;100059.00;;;;4974639;28;20180;-42
2022/12/15 13:15:36;;;;;;;7.47;4.90;;;15.40;50.80;16.20;100074.00;;;;4975770;28;20760;-42
2022/12/15 13:18:17;;;;;;;4.97;4.57;;;15.40;51.10;16.20;100058.00;;;;4992719;28;20195;-41
2022/12/15 13:20:43;;;;;;;6.00;4.50;;;15.40;51.20;16.20;100058.00;;;;4991423;28;20204;-41
2022/12/15 13:23:18;;;;;;;6.13;4.90;;;15.40;51.20;16.20;100051.00;;;;4974092;28;20196;-42
2022/12/15 13:25:49;;;;;;;4.93;4.40;;;15.40;51.20;16.20;100052.00;;;;4991876;28;20187;-41
2022/12/15 13:28:17;;;;;;;6.50;4.43;;;15.40;51.30;16.30;100054.00;;;;4992565;28;20165;-41
2022/12/15 13:31:17;;;;;;;4.90;4.40;;;15.50;51.30;16.30;100036.00;;;;4991816;28;20206;-42
2022/12/15 13:33:54;;;;;;;5.00;4.57;;;15.50;51.30;16.30;100028.00;;;;4992703;28;20207;-42